createdAt,value
2019-03-31T00:01:53.266Z,24.43
2019-03-31T00:04:37.972Z,25.17
2019-03-31T00:07:22.376Z,22.93
2019-03-31T00:10:07.234Z,23.63
2019-03-31T00:12:52.187Z,23.80
2019-03-31T00:15:37.564Z,23.90
2019-03-31T00:18:22.259Z,23.40
2019-03-31T00:21:07.137Z,25.20
2019-03-31T00:23:52.538Z,24.40
2019-03-31T00:26:37.603Z,24.27
2019-03-31T00:29:22.421Z,23.83
2019-03-31T00:32:07.262Z,22.60
2019-03-31T00:34:52.301Z,23.47
2019-03-31T00:37:37.175Z,24.20
2019-03-31T00:40:21.938Z,23.63
2019-03-31T00:43:06.609Z,24.13
2019-03-31T00:45:51.271Z,24.73
2019-03-31T00:48:35.871Z,23.03
2019-03-31T00:51:20.819Z,24.97
2019-03-31T00:54:05.536Z,25.60
2019-03-31T00:56:50.032Z,25.17
2019-03-31T00:59:34.603Z,25.93
2019-03-31T01:02:21.612Z,26.03
2019-03-31T01:05:06.366Z,25.40
2019-03-31T01:07:51.348Z,25.23
2019-03-31T01:10:36.097Z,25.07
2019-03-31T01:13:20.816Z,24.70
2019-03-31T01:16:06.865Z,24.43
2019-03-31T01:18:51.868Z,24.87
2019-03-31T01:21:36.492Z,23.93
2019-03-31T01:24:21.042Z,23.60
2019-03-31T01:27:07.786Z,24.80
2019-03-31T01:29:52.821Z,25.20
2019-03-31T01:32:37.522Z,24.23
2019-03-31T01:35:22.326Z,25.00
2019-03-31T01:38:07.427Z,24.53
2019-03-31T01:40:51.973Z,23.23
2019-03-31T01:43:37.262Z,24.03
2019-03-31T01:46:23.348Z,23.33
2019-03-31T01:49:08.039Z,23.70
2019-03-31T01:51:52.582Z,25.13
2019-03-31T01:54:37.173Z,24.00
2019-03-31T01:57:21.633Z,23.40
2019-03-31T02:00:11.702Z,23.33
2019-03-31T02:02:56.446Z,23.70
2019-03-31T02:05:41.063Z,24.47
2019-03-31T02:08:25.806Z,24.43
2019-03-31T02:11:10.973Z,23.60
2019-03-31T02:13:56.100Z,24.23
2019-03-31T02:16:41.323Z,23.40
2019-03-31T02:19:25.783Z,24.90
2019-03-31T02:22:10.500Z,24.73
2019-03-31T02:24:55.062Z,25.00
2019-03-31T02:27:39.817Z,23.67
2019-03-31T02:30:24.925Z,24.17
2019-03-31T02:33:09.980Z,23.97
2019-03-31T02:35:54.897Z,25.03
2019-03-31T02:38:39.308Z,23.93
2019-03-31T02:41:24.218Z,25.20
2019-03-31T02:44:09.058Z,26.53
2019-03-31T02:46:53.835Z,26.13
2019-03-31T02:49:38.728Z,25.47
2019-03-31T02:52:23.512Z,25.93
2019-03-31T02:55:08.139Z,24.10
2019-03-31T02:57:53.685Z,24.70
2019-03-31T03:00:38.482Z,25.00
2019-03-31T03:03:24.802Z,24.93
2019-03-31T03:06:11.191Z,23.83
2019-03-31T03:08:57.326Z,23.30
2019-03-31T03:11:43.697Z,25.17
2019-03-31T03:14:32.164Z,24.63
2019-03-31T03:17:17.496Z,24.83
2019-03-31T03:20:03.590Z,25.20
2019-03-31T03:22:48.342Z,24.50
2019-03-31T03:25:32.707Z,23.50
2019-03-31T03:28:17.485Z,24.97
2019-03-31T03:31:02.425Z,24.63
2019-03-31T03:33:47.855Z,24.90
2019-03-31T03:36:32.600Z,24.83
2019-03-31T03:39:17.137Z,24.53
2019-03-31T03:42:01.901Z,23.87
2019-03-31T03:44:46.970Z,23.60
2019-03-31T03:47:31.822Z,24.23
2019-03-31T03:50:16.232Z,25.07
2019-03-31T03:53:00.786Z,25.60
2019-03-31T03:55:45.317Z,24.40
2019-03-31T03:58:29.941Z,26.17
2019-03-31T04:01:16.491Z,25.70
2019-03-31T04:04:01.288Z,30.43
2019-03-31T04:06:45.863Z,28.87
2019-03-31T04:09:30.518Z,27.27
2019-03-31T04:12:15.022Z,25.60
2019-03-31T04:15:00.006Z,24.73
2019-03-31T04:17:44.824Z,26.37
2019-03-31T04:20:29.514Z,26.33
2019-03-31T04:23:14.357Z,24.70
2019-03-31T04:25:59.569Z,25.10
2019-03-31T04:28:44.167Z,25.57
2019-03-31T04:31:29.381Z,26.50
2019-03-31T04:34:14.493Z,25.63
2019-03-31T04:36:58.886Z,26.27
2019-03-31T04:39:43.531Z,25.23
2019-03-31T04:42:28.421Z,24.50
2019-03-31T04:45:13.198Z,25.30
2019-03-31T04:47:58.186Z,24.93
2019-03-31T04:50:42.797Z,23.70
2019-03-31T04:53:28.076Z,25.03
2019-03-31T04:56:12.971Z,25.23
2019-03-31T04:58:57.525Z,24.67
2019-03-31T05:01:41.973Z,25.70
2019-03-31T05:04:26.600Z,25.53
2019-03-31T05:07:11.192Z,25.73
2019-03-31T05:09:55.697Z,26.00
2019-03-31T05:12:40.171Z,25.13
2019-03-31T05:15:24.702Z,25.17
2019-03-31T05:18:09.211Z,25.83
2019-03-31T05:20:53.822Z,26.70
2019-03-31T05:23:38.397Z,24.83
2019-03-31T05:26:23.500Z,24.80
2019-03-31T05:29:07.926Z,25.60
2019-03-31T05:31:52.558Z,25.30
2019-03-31T05:34:37.216Z,26.87
2019-03-31T05:37:21.652Z,25.63
2019-03-31T05:40:06.578Z,26.43
2019-03-31T05:42:51.530Z,25.60
2019-03-31T05:45:36.414Z,30.33
2019-03-31T05:48:21.360Z,30.00
2019-03-31T05:51:05.938Z,31.60
2019-03-31T05:53:50.360Z,37.33
2019-03-31T05:56:34.951Z,33.83
2019-03-31T05:59:19.609Z,38.33
2019-03-31T06:02:04.277Z,36.33
2019-03-31T06:04:49.340Z,36.23
2019-03-31T06:07:33.910Z,38.27
2019-03-31T06:10:18.807Z,42.80
2019-03-31T06:13:03.466Z,43.93
2019-03-31T06:15:48.377Z,43.93
2019-03-31T06:18:32.727Z,46.90
2019-03-31T06:21:17.383Z,46.57
2019-03-31T06:24:02.036Z,48.23
2019-03-31T06:26:46.386Z,50.10
2019-03-31T06:29:30.935Z,50.27
2019-03-31T06:32:15.381Z,50.17
2019-03-31T06:35:00.006Z,50.33
2019-03-31T06:37:44.551Z,51.23
2019-03-31T06:40:29.300Z,49.90
2019-03-31T06:43:13.902Z,49.53
2019-03-31T06:45:58.505Z,52.27
2019-03-31T06:48:43.091Z,51.77
2019-03-31T06:51:27.870Z,51.23
2019-03-31T06:54:12.760Z,53.53
2019-03-31T06:56:57.360Z,53.77
2019-03-31T06:59:41.705Z,52.23
2019-03-31T07:02:26.297Z,49.80
2019-03-31T07:05:10.952Z,50.80
2019-03-31T07:07:55.365Z,50.17
2019-03-31T07:10:40.170Z,49.53
2019-03-31T07:13:25.730Z,48.80
2019-03-31T07:16:10.718Z,49.50
2019-03-31T07:18:55.651Z,50.23
2019-03-31T07:21:40.708Z,48.57
2019-03-31T07:24:25.244Z,47.77
2019-03-31T07:27:10.407Z,46.00
2019-03-31T07:29:55.341Z,46.93
2019-03-31T07:32:39.695Z,46.97
2019-03-31T07:35:24.792Z,47.67
2019-03-31T07:38:09.703Z,48.27
2019-03-31T07:40:54.724Z,48.10
2019-03-31T07:43:39.570Z,46.87
2019-03-31T07:46:24.164Z,43.30
2019-03-31T07:49:08.901Z,45.07
2019-03-31T07:51:53.511Z,46.83
2019-03-31T07:54:38.135Z,45.17
2019-03-31T07:57:23.152Z,43.77
2019-03-31T08:00:12.023Z,44.87
2019-03-31T08:03:00.044Z,40.00
2019-03-31T08:05:43.573Z,37.50
2019-03-31T08:08:28.382Z,31.47
2019-03-31T08:11:13.132Z,31.07
2019-03-31T08:13:58.344Z,32.00
2019-03-31T08:16:42.924Z,32.27
2019-03-31T08:19:27.426Z,30.93
2019-03-31T08:22:12.130Z,30.23
2019-03-31T08:24:56.522Z,28.80
2019-03-31T08:27:41.182Z,27.97
2019-03-31T08:30:26.041Z,27.97
2019-03-31T08:33:10.897Z,28.60
2019-03-31T08:35:55.587Z,27.63
2019-03-31T08:38:40.506Z,27.00
2019-03-31T08:41:25.226Z,26.27
2019-03-31T08:44:10.078Z,23.07
2019-03-31T08:46:54.595Z,20.87
2019-03-31T08:49:39.417Z,18.87
2019-03-31T08:52:24.571Z,19.30
2019-03-31T08:55:10.321Z,18.07
2019-03-31T08:57:55.217Z,18.53
2019-03-31T09:00:48.063Z,17.37
2019-03-31T09:03:32.961Z,16.57
2019-03-31T09:06:17.637Z,16.10
2019-03-31T09:09:05.752Z,16.20
2019-03-31T09:11:50.431Z,15.00
2019-03-31T09:14:35.316Z,14.63
2019-03-31T09:17:20.029Z,14.47
2019-03-31T09:20:06.015Z,13.53
2019-03-31T09:22:50.805Z,13.97
2019-03-31T09:25:35.975Z,15.00
2019-03-31T09:28:20.611Z,12.70
2019-03-31T09:31:05.790Z,12.53
2019-03-31T09:33:50.801Z,13.20
2019-03-31T09:36:36.131Z,12.40
2019-03-31T09:39:21.037Z,12.40
2019-03-31T09:42:05.904Z,12.53
2019-03-31T09:44:50.838Z,12.63
2019-03-31T09:47:36.992Z,12.83
2019-03-31T09:50:21.845Z,13.03
2019-03-31T09:53:06.812Z,12.27
2019-03-31T09:55:51.846Z,13.37
2019-03-31T09:58:36.469Z,10.93
2019-03-31T10:01:21.435Z,10.90
2019-03-31T10:04:06.751Z,10.07
2019-03-31T10:06:52.835Z,9.60
2019-03-31T10:09:37.670Z,9.47
2019-03-31T10:12:22.445Z,10.10
2019-03-31T10:15:07.965Z,8.70
2019-03-31T10:17:52.876Z,9.63
2019-03-31T10:20:37.929Z,9.77
2019-03-31T10:23:23.024Z,9.73
2019-03-31T10:26:08.006Z,10.20
2019-03-31T10:28:52.564Z,9.43
2019-03-31T10:31:37.545Z,9.23
2019-03-31T10:34:22.585Z,9.57
2019-03-31T10:37:07.163Z,10.37
2019-03-31T10:39:51.987Z,10.10
2019-03-31T10:42:37.047Z,9.17
2019-03-31T10:45:21.736Z,9.43
2019-03-31T10:48:19.817Z,9.53
2019-03-31T10:50:53.866Z,10.03
2019-03-31T10:53:38.977Z,10.00
2019-03-31T10:56:24.284Z,10.23
2019-03-31T10:59:09.022Z,9.43
2019-03-31T11:01:53.842Z,9.03
2019-03-31T11:04:38.754Z,9.67
2019-03-31T11:07:24.022Z,10.90
2019-03-31T11:10:08.995Z,12.07
2019-03-31T11:12:53.721Z,12.03
2019-03-31T11:15:38.933Z,12.00
2019-03-31T11:18:23.599Z,12.07
2019-03-31T11:21:10.524Z,11.83
2019-03-31T11:23:55.431Z,12.33
2019-03-31T11:26:40.129Z,12.50
2019-03-31T11:29:25.175Z,12.43
2019-03-31T11:32:10.077Z,12.00
2019-03-31T11:34:55.196Z,12.00
2019-03-31T11:37:40.486Z,11.87
2019-03-31T11:40:25.004Z,11.50
2019-03-31T11:43:09.649Z,11.60
2019-03-31T11:45:54.255Z,11.60
2019-03-31T11:48:39.164Z,10.90
2019-03-31T11:51:24.378Z,10.23
2019-03-31T11:54:09.267Z,11.40
2019-03-31T11:56:54.260Z,11.63
2019-03-31T11:59:39.157Z,11.80
2019-03-31T12:02:27.370Z,10.60
2019-03-31T12:05:12.575Z,9.83
2019-03-31T12:07:57.199Z,8.43
2019-03-31T12:10:42.525Z,9.00
2019-03-31T12:13:27.466Z,10.00
2019-03-31T12:16:12.639Z,8.40
2019-03-31T12:18:57.166Z,7.90
2019-03-31T12:21:42.563Z,7.70
2019-03-31T12:24:27.190Z,7.47
2019-03-31T12:27:12.280Z,8.20
2019-03-31T12:29:57.267Z,7.10
2019-03-31T12:32:42.663Z,6.37
2019-03-31T12:35:27.856Z,6.50
2019-03-31T12:38:12.697Z,6.50
2019-03-31T12:40:57.314Z,6.53
2019-03-31T12:43:42.221Z,6.33
2019-03-31T12:46:26.931Z,5.97
2019-03-31T12:49:11.584Z,6.67
2019-03-31T12:51:56.646Z,6.90
2019-03-31T12:54:41.669Z,7.17
2019-03-31T12:57:26.765Z,7.00
2019-03-31T13:00:11.854Z,6.90
2019-03-31T13:02:56.536Z,6.87
2019-03-31T13:05:41.660Z,6.80
2019-03-31T13:08:26.623Z,5.60
2019-03-31T13:11:11.681Z,5.90
2019-03-31T13:13:56.788Z,6.10
2019-03-31T13:16:41.291Z,5.45
2019-03-31T13:19:26.142Z,5.37
2019-03-31T13:22:11.224Z,5.20
2019-03-31T13:24:56.612Z,4.78
2019-03-31T13:27:41.575Z,4.63
2019-03-31T13:30:26.521Z,3.63
2019-03-31T13:33:11.044Z,4.17
2019-03-31T13:35:55.831Z,4.00
2019-03-31T13:38:40.821Z,3.45
2019-03-31T13:41:26.020Z,3.60
2019-03-31T13:44:10.974Z,3.83
2019-03-31T13:46:55.702Z,3.55
2019-03-31T13:49:40.830Z,3.30
2019-03-31T13:52:25.919Z,3.17
2019-03-31T13:55:10.883Z,3.15
2019-03-31T13:57:58.097Z,3.30
2019-03-31T14:00:42.675Z,3.70
2019-03-31T14:03:27.734Z,3.55
2019-03-31T14:06:12.669Z,3.77
2019-03-31T14:08:57.232Z,3.67
2019-03-31T14:11:42.538Z,3.30
2019-03-31T14:14:27.472Z,3.20
2019-03-31T14:17:12.627Z,3.40
2019-03-31T14:19:57.825Z,3.13
2019-03-31T14:22:43.141Z,2.80
2019-03-31T14:25:28.126Z,3.27
2019-03-31T14:28:13.122Z,2.40
2019-03-31T14:30:58.184Z,2.50
2019-03-31T14:33:43.399Z,2.20
2019-03-31T14:36:28.482Z,2.20
2019-03-31T14:39:13.363Z,2.15
2019-03-31T14:41:58.266Z,2.00
2019-03-31T14:44:43.367Z,1.80
2019-03-31T14:47:28.417Z,2.27
2019-03-31T14:50:17.017Z,2.27
2019-03-31T14:53:02.271Z,2.47
2019-03-31T14:55:47.106Z,3.47
2019-03-31T14:58:31.978Z,2.40
2019-03-31T15:01:17.042Z,2.83
2019-03-31T15:04:02.267Z,2.10
2019-03-31T15:06:47.247Z,2.92
2019-03-31T15:09:32.451Z,2.58
2019-03-31T15:12:17.555Z,3.60
2019-03-31T15:15:03.790Z,3.33
2019-03-31T15:17:48.575Z,2.80
2019-03-31T15:20:33.743Z,3.00
2019-03-31T15:23:18.762Z,3.58
2019-03-31T15:26:03.905Z,3.42
2019-03-31T15:28:48.890Z,2.90
2019-03-31T15:31:33.930Z,3.10
2019-03-31T15:34:19.479Z,2.50
2019-03-31T15:37:04.237Z,2.40
2019-03-31T15:39:49.505Z,2.35
2019-03-31T15:42:34.656Z,2.50
2019-03-31T15:45:19.770Z,2.33
2019-03-31T15:48:04.837Z,2.95
2019-03-31T15:50:49.909Z,3.22
2019-03-31T15:53:35.099Z,3.08
2019-03-31T15:56:20.143Z,2.67
2019-03-31T15:59:05.357Z,2.50
2019-03-31T16:01:50.350Z,2.75
2019-03-31T16:04:35.376Z,2.80
2019-03-31T16:07:20.702Z,2.98
2019-03-31T16:10:05.843Z,2.70
2019-03-31T16:12:50.755Z,3.27
2019-03-31T16:15:35.747Z,2.97
2019-03-31T16:18:20.963Z,3.37
2019-03-31T16:21:05.824Z,2.90
2019-03-31T16:23:51.051Z,3.20
2019-03-31T16:26:36.036Z,3.17
2019-03-31T16:29:20.801Z,2.97
2019-03-31T16:32:05.586Z,2.90
2019-03-31T16:34:50.308Z,3.00
2019-03-31T16:37:35.030Z,3.30
2019-03-31T16:40:20.089Z,2.90
2019-03-31T16:43:05.179Z,3.20
2019-03-31T16:45:50.117Z,3.07
2019-03-31T16:48:35.249Z,3.10
2019-03-31T16:51:20.186Z,2.80
2019-03-31T16:54:05.282Z,3.20
2019-03-31T16:56:50.225Z,2.80
2019-03-31T16:59:34.933Z,3.10
2019-03-31T17:02:20.081Z,2.83
2019-03-31T17:05:04.984Z,2.33
2019-03-31T17:07:50.067Z,3.47
2019-03-31T17:10:34.944Z,2.67
2019-03-31T17:13:20.106Z,2.80
2019-03-31T17:16:05.183Z,2.97
2019-03-31T17:18:50.203Z,2.50
2019-03-31T17:21:35.090Z,2.30
2019-03-31T17:24:20.270Z,2.70
2019-03-31T17:27:05.452Z,2.87
2019-03-31T17:29:50.598Z,2.07
2019-03-31T17:32:35.544Z,2.53
2019-03-31T17:35:20.713Z,2.30
2019-03-31T17:38:05.688Z,2.13
2019-03-31T17:40:51.056Z,2.43
2019-03-31T17:43:36.109Z,2.03
2019-03-31T17:46:21.046Z,2.20
2019-03-31T17:49:06.018Z,2.00
2019-03-31T17:51:50.825Z,3.00
2019-03-31T17:54:35.963Z,2.60
2019-03-31T17:57:20.610Z,2.33
2019-03-31T18:00:08.259Z,2.00
2019-03-31T18:02:53.236Z,2.53
2019-03-31T18:05:38.175Z,2.43
2019-03-31T18:08:23.194Z,2.53
2019-03-31T18:11:08.249Z,2.50
2019-03-31T18:13:53.049Z,2.90
2019-03-31T18:16:38.251Z,3.10
2019-03-31T18:19:23.339Z,2.70
2019-03-31T18:22:16.241Z,2.57
2019-03-31T18:24:54.894Z,2.80
2019-03-31T18:27:39.700Z,2.87
2019-03-31T18:30:24.961Z,3.07
2019-03-31T18:33:09.993Z,3.37
2019-03-31T18:35:54.979Z,2.60
2019-03-31T18:38:40.359Z,2.20
2019-03-31T18:41:25.765Z,1.90
2019-03-31T18:44:10.915Z,2.52
2019-03-31T18:46:56.034Z,2.17
2019-03-31T18:49:40.862Z,1.90
2019-03-31T18:52:25.749Z,2.70
2019-03-31T18:55:18.205Z,2.90
2019-03-31T18:58:21.260Z,3.00
2019-03-31T19:01:20.588Z,2.30
2019-03-31T19:04:16.507Z,2.83
2019-03-31T19:07:06.420Z,2.63
2019-03-31T19:09:53.436Z,2.57
2019-03-31T19:12:52.280Z,2.40
2019-03-31T19:15:54.068Z,2.30
2019-03-31T19:18:57.680Z,2.50
2019-03-31T19:21:44.641Z,2.00
2019-03-31T19:24:39.898Z,2.43
2019-03-31T19:27:32.426Z,2.83
2019-03-31T19:30:21.661Z,3.00
2019-03-31T19:33:18.035Z,2.50
2019-03-31T19:36:05.213Z,3.20
2019-03-31T19:38:55.245Z,2.50
2019-03-31T19:41:47.669Z,2.40
2019-03-31T19:44:36.870Z,2.30
2019-03-31T19:47:26.365Z,2.20
2019-03-31T19:50:25.468Z,2.10
2019-03-31T19:53:27.705Z,2.30
2019-03-31T19:56:14.804Z,2.07
2019-03-31T19:59:16.528Z,2.30
2019-03-31T20:02:03.752Z,2.73
2019-03-31T20:05:08.710Z,2.43
2019-03-31T20:08:11.899Z,2.70
2019-03-31T20:11:07.293Z,2.33
2019-03-31T20:13:59.995Z,2.40
2019-03-31T20:17:04.214Z,2.53
2019-03-31T20:19:53.918Z,2.30
2019-03-31T20:22:43.511Z,2.40
2019-03-31T20:25:30.143Z,2.63
2019-03-31T20:28:17.174Z,2.43
2019-03-31T20:31:06.864Z,2.30
2019-03-31T20:34:05.497Z,2.63
2019-03-31T20:36:52.650Z,2.60
2019-03-31T20:39:39.598Z,3.70
2019-03-31T20:42:28.845Z,2.90
2019-03-31T20:45:14.376Z,2.70
2019-03-31T20:47:59.484Z,2.40
2019-03-31T20:50:44.655Z,2.77
2019-03-31T20:53:29.614Z,3.33
2019-03-31T20:56:14.861Z,3.30
2019-03-31T20:58:59.614Z,3.13
2019-03-31T21:01:44.845Z,3.30
2019-03-31T21:04:29.942Z,3.63
2019-03-31T21:07:15.566Z,3.40
2019-03-31T21:10:00.371Z,2.83
2019-03-31T21:12:45.630Z,3.10
2019-03-31T21:15:30.925Z,2.90
2019-03-31T21:18:15.874Z,2.70
2019-03-31T21:21:00.620Z,2.90
2019-03-31T21:23:45.793Z,2.90
2019-03-31T21:26:30.807Z,2.20
2019-03-31T21:29:15.834Z,2.30
2019-03-31T21:32:00.750Z,2.60
2019-03-31T21:34:45.613Z,2.70
2019-03-31T21:37:30.591Z,3.03
2019-03-31T21:40:15.822Z,2.70
2019-03-31T21:43:00.874Z,2.67
2019-03-31T21:45:45.948Z,2.60
2019-03-31T21:48:31.057Z,2.53
2019-03-31T21:51:16.101Z,2.87
2019-03-31T21:54:00.763Z,3.20
2019-03-31T21:56:45.309Z,3.13
2019-03-31T21:59:33.279Z,3.30
2019-03-31T22:02:16.510Z,2.93
2019-03-31T22:05:01.874Z,2.70
2019-03-31T22:07:46.667Z,2.30
2019-03-31T22:10:31.303Z,3.60
2019-03-31T22:13:16.580Z,2.63
2019-03-31T22:16:01.577Z,2.67
2019-03-31T22:18:46.115Z,2.70
2019-03-31T22:21:30.797Z,2.47
2019-03-31T22:24:15.322Z,2.80
2019-03-31T22:26:59.847Z,2.63
2019-03-31T22:29:44.548Z,2.80
2019-03-31T22:32:29.678Z,2.67
2019-03-31T22:35:14.242Z,2.10
2019-03-31T22:38:02.264Z,3.00
2019-03-31T22:40:45.549Z,2.90
2019-03-31T22:43:30.655Z,2.57
2019-03-31T22:46:16.318Z,3.00
2019-03-31T22:49:01.216Z,2.93
2019-03-31T22:51:46.244Z,2.63
2019-03-31T22:54:30.959Z,2.50
2019-03-31T22:57:15.693Z,2.97
2019-03-31T23:00:00.347Z,2.50
2019-03-31T23:02:45.456Z,2.23
2019-03-31T23:05:30.442Z,2.20
2019-03-31T23:08:15.298Z,2.63
2019-03-31T23:10:59.839Z,2.53
2019-03-31T23:13:44.494Z,2.40
2019-03-31T23:16:28.923Z,2.27
2019-03-31T23:19:13.534Z,2.60
2019-03-31T23:21:58.251Z,1.87
2019-03-31T23:24:43.047Z,1.90
2019-03-31T23:27:27.591Z,1.90
2019-03-31T23:30:12.447Z,1.83
2019-03-31T23:32:57.414Z,2.03
2019-03-31T23:35:41.937Z,2.63
2019-03-31T23:38:26.690Z,2.23
2019-03-31T23:41:11.619Z,2.20
2019-03-31T23:43:56.681Z,2.00
2019-03-31T23:46:41.809Z,1.70
2019-03-31T23:49:26.214Z,1.97
2019-03-31T23:52:10.858Z,1.97
2019-03-31T23:54:55.503Z,2.10
2019-03-31T23:57:43.303Z,2.00
